메인 페이지
METAR-TAF:

METAR-TAF

공항 :

벵갈루루 국제공항

벵갈루루, 인도

위도: 13-11-56N, 경도: 077-42-20E, 고도: 915m

현재 날씨관측

예보는 36분 전, 21:30시(UTC)에 발표되었습니다.
동남동5kt
온도 21°C
습도 69%
기압 1015 hPa
시정: 6000m

METAR: VOBL 312130Z 12005KT 6000 NSC 21/15 Q1015 NOSIG

시각: 03:36 (22:06 UTC)

예보

예보는 2 시간 6분 전, 20:00시(UTC)에 발표되었습니다.
예보 대상 시간: 31일 21시부터 01일 06시까지 (UTC)
동남동5kt
시정: 6000m
일시적
01일 00시부터 01일 03시까지 (UTC)
시정: 4000m
고도 1000ft 상공 구름 조금
박무

TAF: VOBL 312000Z 3121/0106 11005KT 6000 NSC TEMPO 0100/0103 4000 BR FEW010

4,000개 이상의 공항 관측 자료 및 예보 (METAR 및 TAF 보고).

지도상에서 검색 가능한 기상관측소가 노란 점과 빨간 점으로 표시되어 있습니다.

기상관측소 명을 보려면 표시 위로 마우스를 이동하세요.

날씨 관측과 예보를 보려면 클릭하세요.

지도 변경 : 확대하려면 엑스 표시가 있는 녹색 버튼, 축소하려면 빼기 표시가 있는 녹색 버튼, 다음 페이지의 지도를 보려면 녹색 화살표를 클릭하세요.


METAR-TAF: